EFKK

Kruunupyy Airport

Kokkola / Kruunupyy, Finland
METAR EFKK 092120Z AUTO 12011KT 090V150 9999 -SHRA OVC008 03/02 Q0989
Observed Flight Rules
Dec-9 @ 21:20 UTC (20 minutes ago) Instrument Flight Rules
Wind Visibility Clouds Conditions
120° at 11 knots 10,000+ meters
  • Overcast at 800' AGL
  • Light Rain
Temperatures Readings
Current 3°C / 37°F
Dewpoint 2°C / 36°F
Humidity 93%
Altimeter 29.2" Hg
Pressure 989 hPa
Elevation 25
METAR EFKK 092120Z AUTO 12011KT 090V150 9999 -SHRA OVC008 03/02 Q0989
Observed Flight Rules
Dec-9 @ 21:20 UTC
(20 minutes ago)
IFR
Wind Visibility
120° at 11 knots 10,000+ meters
Clouds
  • Overcast at 800' AGL
Conditions
  • Light Rain
Temperature Dewpoint
3°C / 37°F 2°C / 36°F
Humidity Altimeter Pressure
93% 29.2" Hg 989 hPa